Aubagne le clos Ruffisque         Octobre 2003                                                                                                                                                                                                                                                                                                                                                                                                                                                                              
HEURES UTC Températures (°C) Humidité Vent  (km/h) Précipitations   Pression (hPa) Divers  
Date Max (06h-06h) Heure Maxi Min (18h-18h) Heure Mini Moy (tx+tn)/2 Wind Chill Min Heure Tx-Tn Relative maxi Heure Maxi Relative mini Heure Mini Relative moy (hx+hn)/2 Point de rosée maxi Heure Maxi Point de rosée mini Heure Mini Point de rosée moyen Vent  moy maxi (10mn) Vent  moyen (24h) Direction dominante Rafales (km/h) maxi Heure Raf Max Direction rafale maxi Total Du jour (mm) Durée (h) Intensité maxi sur 1 min (mm/h) Heure intensite Max Maxi Heure Maxi Mini Heure Mini Moy (px+pn)/2 Variation Epaisseur neige Remarques diverses (Heures UTC)    
01/10/2003 25,8 10.03 18,5 23.56 22,15 17,8 00.01 7,3 79% 00.00 51% 12.57 65% 16,7 20.51 12,2 01.53 14,45 19,3 9,8 ESE 48,3 04.10 E         1012,7 23.44 1009 04.44 1010,9 3,7   Ciel entre 3/8 et 8/8 de stratocumulus. Vent de SE modérée  
02/10/2003 26,8 12.46 18,4 06.04 22,60 18,4 06.04 8,4 87% 06.10 50% 12.52 69% 19,4 13.53 15,6 00.12 17,50 19,9 6,6 SSE 38,6 13.54 SE         1014 09.44 1012 12.44 1013,0 2,0   Ciel entre 3/8 et 7/8 d'altocumulus. Quelques gouttes l'AM.  
03/10/2003 24,9 10.47 20,2 17.36 22,55 20,2 17.36 4,7 88% 21.33 49% 11.52 69% 18,9 05.55 13,3 11.52 16,10 16,6 5,8 SSE 33,8 11.05 E         1012,8 19.44 1011,4 15.29 1012,1 1,4   Ciel entre 2/8 et 4/8 de cumulus.  
04/10/2003 21,2 15.40 16,4 06.17 18,80 15,9 06.55 4,8 81% 01.53 52% 12.54 67% 14,4 00.29 9,4 21.34 11,90 19,5 8 WNW 43,5 23.27 WNW Traces       1012,8 00.29 1006,3 23.44 1009,6 6,5   Ciel entre 4/8 et 8/8 de cumulus. Très faibles pluies en fin de soirée.  
05/10/2003 15,4 10.53 11,8 17.57 13,60 8,4 17.53 3,6 66% 00.02 38% 10.55 52% 10 00.00 0 11.24 5,00 33,5 21,2 NW 62,8 16.25 N 0,1       1013,3 22.14 1005,6 02.44 1009,5 7,7   Ciel entre 2/8 et 7/8 de cumulus. Faible averse à 13h10 avec chute de la T, de 14,7°C à 12,3°C en 8 minutes. Fort mistral.  
06/10/2003 16,9 15.00 8,8 05.55 12,85 4,7 05.44 8,1 71% 03.28 30% 16.18 51% 4,4 09.04 -2,2 16.19 1,10 26,5 12,2 NW 46,7 00.07 NW         1018,6 21.59 1013,1 00.14 1015,9 5,5   Ciel entre 1/8 et 4/8 de cirrus.  
07/10/2003 18,8 13.08 8,5 22.38 13,65 7,4 03.07 10,3 68% 02.52 50% 12.48 59% 10,6 14.57 1,7 03.08 6,15 29,3 15,1 NW 51,5 13.51 WNW         1018,3 00.29 1011,6 23.29 1015,0 6,7   Ciel entre 2/8 et 6/8 de cumulus. Mistral modéré.  
08/10/2003 17,2 12.53 12,3 07.46 14,75 8,4 07.43 4,9 74% 02.49 29% 12.18 52% 11,7 02.00 -1,7 12.13 5,00 35,7 19,8 NW 62,8 08.07 NNW         1018,1 18.44 1010,8 01.29 1014,5 7,3   Ciel entre 1/8 et 3/8 de cirrus et altocumulus. Fort mistral.  
09/10/2003 22 13.39 14,7 18.22 18,35 12,7 21.43 7,3 82% 23.12 41% 14.51 62% 11,1 07.51 6,7 00.02 8,90 33,6 17,9 NW 70,8 04.23 NW Traces       1016,3 00.14 1013 15.29 1014,7 3,3   Ciel entre 0/8 et 1/8 de cirrus. Fort Mistral tombant en soirée.  
10/10/2003 21,4 13.01 10,4 02.43 15,90 9,7 01.34 11,0 91% 22.44 55% 12.45 73% 12,8 11.09 8,3 00.44 10,55 9,8 3,7 SE 17,7 04.07 SE 0,1       1021,5 21.29 1016,6 00.29 1019,1 4,9   Ciel 0/8. Vent faible.  
11/10/2003 20,9 13.00 10,7 03.45 15,80 9,1 04.05 10,2 94% 04.01 59% 12.29 77% 15,6 15.38 9,4 03.38 12,50 12,4 3,4 SSE 25,7 17.05 S Traces       1022,7 09.44 1020,9 15.14 1021,8 1,8   Ciel entre 6/8 et 8/8 de stratocumulus.    
12/10/2003 20,4 11.42 14,1 06.19 17,25 13,9 06.19 6,3 92% 06.41 58% 11.16 75% 16,1 13.49 11,7 10.50 13,90 16,1 4,7 SE 32,2 11.56 SE Traces       1021,9 00.14 1019,4 16.14 1020,7 2,5   Ciel entre 2/8 et 8/8 de stratocumulus et d'altocumulus.  
13/10/2003 20,1 10.28 14,3 20.38 17,20 14,2 22.49 5,8 93% 23.39 65% 14.11 79% 14,4 08.20 11,4 23.15 12,90 8,5 2,3 SE 14,5 00.05 SE 0,1       1020,1 00.14 1017,4 15.29 1018,8 2,7   Ciel entre 6/8 et 8/8 de stratocumulus et d'altocumulus.  
14/10/2003 23,7 12.20 12,5 01.40 18,10 12,4 01.42 11,2 92% 00.21 41% 15.08 67% 14,4 12.59 8,3 16.15 11,35 12,1 4,5 SE 30,6 10.27 SE         1017,7 00.14 1014,9 14.44 1016,3 2,8   Ciel entre 1/8 et 6/8 de cumulus.  
15/10/2003 21,6 10.39 15,4 00.50 18,50 15,3 01.14 6,2 80% 00.50 38% 08.32 59% 12,2 00.00 3,3 17.47 7,75 12,6 5,3 SSE 30,6 13.32 ESE         1018,9 22.29 1015,6 02.59 1017,3 3,3   Ciel entre 1/8 et 3/8 de cirrus.  
16/10/2003 20,6 12.46 11,7 05.23 16,15 10,3 05.25 8,9 57% 05.23 21% 14.40 39% 5,6 08.01 -3,3 01.09 1,15 16,3 4,7 SE 38,6 23.46 ENE Traces       1019,2 06.59 1016,5 14.59 1017,9 2,7   Ciel entre 0/8 et 2/8 de cirrus.  
17/10/2003 16,6 03.09 13,2 21.37 14,90 13 21.39 3,4 44% 23.48 29% 14.30 37% 2,8 00.00 -3,9 03.09 -0,55 23,3 16,1 E 59,5 06.33 SSE         1017,1 08.59 1011,2 23.44 1014,2 5,9   Ciel 8/8 de stratocumulus. Quelques goutte de temps en temps. Fort vent d'Est.  
18/10/2003 14,1 06.01 9,4 08.50 11,75 7,4 10.32 4,7 94% 22.02 28% 05.50 61% 9,4 14.41 -4,4 05.50 2,50 16,9 4,8 E 43,5 06.32 ENE 11   6,4 14.13 1012,1 20.59 1010,1 13.14 1011,1 2,0   Ciel 8/8. Pluies faibles toute la journée.  
19/10/2003 19,1 00.44 9,9 00.33 14,50 8,3 06.01 9,2 94% 00.57 58% 13.21 76% 16,4 23.48 6,9 13.25 11,65 27,2 7,2 ESE 59,5 23.39 ESE 13,4   35,2 21.27 1011,7 00.14 1000,9 23.29 1006,3 10,8   Ciel 8/8. Pluies faibles en fin d'AM se renforcant et devenant orageuses en soirée. Vent de SE fort en soirée.  
20/10/2003 19,3 12.31 14,7 17.59 17,00 14,7 17.59 4,6 90% 03.11 53% 13.28 72% 16,7 00.04 8,9 13.28 12,80 26,1 7,7 WNW 57,9 00.23 ESE 0,2       1004,2 23.44 997,7 08.29 1001,0 6,5   Ciel entre 4/8 et 8/8 de cumulus. Vent d'ESE violent en premiere partie de nuit. Quelques gouttes à proximité d'une averse en début d'AM. Petite averse en fin de nuit suivante.  
21/10/2003 14,3 12.50 11,4 06.24 12,85 8,3 07.29 2,9 77% 02.41 35% 19.16 56% 11,7 00.09 -3,3 19.16 4,20 26,4 13,8 NW 41,8 00.56 NW         1010,8 22.44 1004,1 00.14 1007,5 6,7   Ciel entre 0/8 et 4/8 de cirrus. Mistral modéré.  
22/10/2003 15,9 13.32 5,1 01.41 10,50 3,4 01.47 10,8 87% 23.58 27% 11.00 57% 7,8 23.58 -3,9 10.54 1,95 14,5 3,5 WNW 27,4 11.43 WNW 7,1   33,4 00.30 1011,1 00.44 1003,1 23.44 1007,1 8,0   Ciel entre 0/8 et 3/8 de cirrus, plus nombreux en soirée. Orage violent à partir de 23h30, activité électrique très importante, 1 éclair/5-10 sec avec impacts proches du site. Pluie forte ponctuellement.  
23/10/2003 13,5 13.23 7,5 05.57 10,50 4,2 04.53 6,0 94% 00.55 40% 13.41 67% 8,9 00.25 0 13.09 4,45 22,9 8,9 NW 43,5 11.24 NW Traces       1007,1 21.44 1002,7 01.14 1004,9 4,4   Orage violent jusqu'à 00h35. Ciel entre 2/8 et 4/8 de cumulus en journée. Mistral modéré.  
24/10/2003 10,7 12.47 5,3 05.57 8,00 0,2 06.16 5,4 85% 04.37 44% 13.41 65% 5 00.08 -1,7 13.41 1,65 29,3 14 NW 51,5 12.38 NNW         1016,9 23.44 1006,6 01.29 1011,8 10,3   Ciel 0/8. Mistral modéré.  
25/10/2003 13,8 12.58 0,4 03.35 7,10 -3,1 04.10 13,4 88% 04.43 46% 13.32 67% 3,9 10.28 -1,7 02.31 1,10 11,5 3,2 W 19,3 13.28 WNW         1020,8 10.29 1017,4 00.14 1019,1 3,4   Ciel entre 0/8 et 4/8 de cumulus. Gelée blanche le matin.  
26/10/2003 9,9 12.12 4,1 00.18 7,00 0,5 00.37 5,8 92% 19.09 67% 08.59 80% 7,8 11.47 1,1 00.06 4,45 15,8 6,1 SE 27,4 17.58 NE 11,5   6,4 18.50 1018,5 00.14 1007,6 17.59 1013,1 10,9   Ciel 8/8. Faibles pluies dès la fin de matinée jusqu'en soirée.  
27/10/2003 13,2 13.03 7,7 19.25 10,45 4,1 20.43 5,5 93% 02.40 61% 13.06 77% 7,8 08.21 4,4 11.03 6,10 10,8 2,7 SE 30,6 23.30 E         1017,1 21.44 1010,4 00.14 1013,8 6,7   Ciel entre 6/8 et 8/8 de stratus et stratocumulus.  
28/10/2003 15,4 13.44 8 20.56 11,70 7,1 21.09 7,4 83% 01.18 42% 15.14 63% 7,8 07.13 0,6 19.02 4,20 17,7 7,6 E 51,5 09.41 NE 6,9   18,8 05.22 1017,1 01.44 1012,2 23.44 1014,7 4,9   Ciel entre 6/8 et 8/8. Petites pluies en matinée. Vent d'Est soutenu en début d'AM. Averses de pluie modérée en fin de nuit suivante.  
29/10/2003 14,3 14.50 9,8 07.57 12,05 7 06.54 4,5 94% 07.36 53% 00.00 74% 10 10.25 3,1 00.00 6,55 20,1 4,8 SE 41,8 23.46 W 12,6   48,0 06.56 1011,7 00.14 1002,9 23.29 1007,3 8,8   Orage fort de 07h10 à 07h20. Fortes averses en matinée à 48 mm/h maxi sur 1 minute. Ciel entre 5/8 et 8/8 l'AM. Forte averse à 23h30 laissant 3 mm en 6 minutes.  
30/10/2003 16,6 05.48 8,2 06.47 12,40 5,1 07.12 8,4 95% 18.55 53% 11.00 74% 10 20.53 2,8 05.55 6,40 20,4 9,3 NW 41,8 02.14 NNW 2,6   4,2 18.07 1004,2 09.44 995 23.59 999,6 9,2   Mistral modéré en fin de nuit. Ciel 0/8 en début de matinée. Entre 2/8 et 6/8 l'AM. Quelques averses en fin d'AM.   
31/10/2003 17,4 09.32 9,9 18.00 13,65 7,7 18.44 7,5 94% 00.07 70% 08.42 82% 15 13.20 10 00.00 12,50 34,8 15,8 ESE 74 12.43 SSW 23,5   113,0 20.53 994,8 00.14 986,5 18.29 990,7 8,3   Ciel 8/8. Fort vent de SE. Averses sporadiques l'AM. Pluies plus continues en soirée. Très forte averse à 20h53 avec 4,6 mm en 5 minutes (55,2 mm/h)  
  Températures (°C) Humidité Vent  (km/h) Pluies   Pression (hPa) Divers  
  Max   Min   Moy (tx+tn)/2 Wind Chill Min   Tx-Tn Relative maxi   Relative mini   Relative moy (hx+hn)/2 Point de rosée maxi   Point de rosée mini   Point de rosée moyen Vent  moy maxi (10mn) Vent  moyen (24h) Direction dominante Rafales (km/h) maxi   Direction rafale maxi Total Du jour (mm) Durée (h) Intensité maxi (mm/h)   Maxi   Mini   Moy (px+pn)/2 Variation Epaisseur neige Remarques diverses  
Maxi 26,80   20,20   22,60 20,2   13,40 95%   70%   82,0% 19,4   15,6   17,50 35,7 21,20 NW 74,00   NW 23,5 0,00 113,0   1022,7   1020,9   1021,8 10,9 0,0    
Mini 9,90   0,40   7,00 -3,1   2,90 44%   21%   36,5% 2,8   -4,4   -0,55 8,5 2,30   14,50             994,8   986,5   990,7 1,4    
Moy 18,12   11,07   14,60 9,2   7,05 83,8%   46,2%   65,0% 11,3   4,0   7,62 20,6 8,73   42,57             1014,6   1009,1   1011,9 5,5    
Total                                                 89,1 0,00                 0,0  
   
Observations          
Jours Rafales > 36 km/h   Rafales > 57,6 km/h   Rafales > 100,8 km/h Précipi. >=10 mm   Tx < 0 Tx > 25   Tx > 30   Tx > 35 Tn < 0   Tn < -5   Tn < -10 Tn < -15 T moy < 0 T moy < -5 T moy > 20   T moy > 25 Grêle Grésil Brouillard   Brume   Orage          
01/10/2003 1   0   0 0   0 1   0   0 0   0   0 0 0 0 1   0 0 0 0   0   0      
02/10/2003 1   0   0 0   0 1   0   0 0   0   0 0 0 0 1   0 0 0 0   0   0      
03/10/2003 0   0   0 0   0 0   0   0 0   0   0 0 0 0 1   0 0 0 0   0   0      
04/10/2003 1   0   0 0   0 0   0   0 0   0   0 0 0 0 0   0 0 0 0   0   0      
05/10/2003 1   1   0 0   0 0   0   0 0   0   0 0 0 0 0   0 0 0 0   0   0      
06/10/2003 1   0   0 0   0 0   0   0 0   0   0 0 0 0 0   0 0 0 0   0   0      
07/10/2003 1   0   0 0   0 0   0   0 0   0   0 0 0 0 0   0 0 0 0   0   0      
08/10/2003 1   1   0 0   0 0   0   0 0   0   0 0 0 0 0   0 0 0 0   0   0      
09/10/2003 1   1   0 0   0 0   0   0 0   0   0 0 0 0 0   0 0 0 0   0   0      
10/10/2003 0   0   0 0   0 0   0   0 0   0   0 0 0 0 0   0 0 0 0   0   0      
11/10/2003 0   0   0 0   0 0   0   0 0   0   0 0 0 0 0   0 0 0 0   0   0      
12/10/2003 0   0   0 0   0 0   0   0 0   0   0 0 0 0 0   0 0 0 0   0   0      
13/10/2003 0   0   0 0   0 0   0   0 0   0   0 0 0 0 0   0 0 0 0   0   0      
14/10/2003 0   0   0 0   0 0   0   0 0   0   0 0 0 0 0   0 0 0 0   0   0      
15/10/2003 0   0   0 0   0 0   0   0 0   0   0 0 0 0 0   0 0 0 0   0   0      
16/10/2003 1   0   0 0   0 0   0   0 0   0   0 0 0 0 0   0 0 0 0   0   0      
17/10/2003 1   1   0 0   0 0   0   0 0   0   0 0 0 0 0   0 0 0 0   0   0      
18/10/2003 1   0   0 1   0 0   0   0 0   0   0 0 0 0 0   0 0 0 0   0   0      
19/10/2003 1   1   0 1   0 0   0   0 0   0   0 0 0 0 0   0 0 0 0   0   1      
20/10/2003 1   1   0 0   0 0   0   0 0   0   0 0 0 0 0   0 0 0 0   0   0      
21/10/2003 1   0   0 0   0 0   0   0 0   0   0 0 0 0 0   0 0 0 0   0   0      
22/10/2003 0   0   0 0   0 0   0   0 0   0   0 0 0 0 0   0 0 0 0   0   1      
23/10/2003 1   0   0 0   0 0   0   0 0   0   0 0 0 0 0   0 0 0 0   0   1      
24/10/2003 1   0   0 0   0 0   0   0 0   0   0 0 0 0 0   0 0 0 0   0   0      
25/10/2003 0   0   0 0   0 0   0   0 0   0   0 0 0 0 0   0 0 0 0   0   0      
26/10/2003 0   0   0 1   0 0   0   0 0   0   0 0 0 0 0   0 0 0 0   0   0      
27/10/2003 0   0   0 0   0 0   0   0 0   0   0 0 0 0 0   0 0 0 0   0   0      
28/10/2003 1   0   0 0   0 0   0   0 0   0   0 0 0 0 0   0 0 0 0   0   0      
29/10/2003 1   0   0 1   0 0   0   0 0   0   0 0 0 0 0   0 0 0 0   0   1      
30/10/2003 1   0   0 0   0 0   0   0 0   0   0 0 0 0 0   0 0 0 0   0   0      
31/10/2003 1   1   0 1   0 0   0   0 0   0   0 0 0 0 0   0 0 0 0   0   0      
  Rafales > 36 km/h   Rafales > 57,6 km/h   Rafales > 100,8 km/h Précipi. >=10 mm   Tx < 0 Tx > 25   Tx > 30   Tx > 35 Tn < 0   Tn < -5   Tn < -10 Tn < -15 T moy < 0 T moy < -5 T moy > 20   T moy > 25 Grêle Grésil Brouillard   Brume   Orage      
Total 20   7   0 5   0 2   0   0 0   0   0 0 0 0 3   0 0 0 0   0   4